Time;durP1;ratioP1;P1;durP2;ratioP2;P2;SDS_P1;SDS_P2;PMS_P1;PMS_P2;Temp;Humidity;BMP_temperature;BMP_pressure;BME280_temperature;BME280_humidity;BME280_pressure;Samples;Min_cycle;Max_cycle;Signal;HPM_P1;HPM_P2
2022/06/05 00:01:04;;;;;;;6.72;6.10;;;;;;;15.46;100.00;93093.59;2093211;28;20031;-83
2022/06/05 00:02:46;;;;;;;6.68;6.00;;;;;;;15.38;100.00;93093.13;2087953;28;20040;-83
2022/06/05 00:03:55;;;;;;;7.60;5.63;;;;;;;15.35;100.00;93089.38;2109411;28;20058;-84
2022/06/05 00:05:14;;;;;;;9.10;6.22;;;;;;;15.42;100.00;93085.66;2106711;28;20557;-84
2022/06/05 00:06:31;;;;;;;8.60;6.18;;;;;;;15.39;100.00;93091.94;2096661;28;20120;-83
2022/06/05 00:07:53;;;;;;;6.40;5.80;;;;;;;15.39;100.00;93080.41;2102550;28;20495;-84
2022/06/05 00:09:30;;;;;;;6.50;5.85;;;;;;;15.39;100.00;93086.56;2100985;28;20564;-83
2022/06/05 00:10:49;;;;;;;6.38;5.78;;;;;;;15.40;100.00;93076.53;2094872;28;20028;-83
2022/06/05 00:12:16;;;;;;;6.75;6.07;;;;;;;15.42;100.00;93072.19;2095126;28;20016;-84
2022/06/05 00:13:54;;;;;;;6.07;5.43;;;;;;;15.42;100.00;93080.28;2101327;28;20051;-83
2022/06/05 00:14:55;;;;;;;7.18;6.03;;;;;;;15.31;100.00;93085.34;2078111;28;20026;-83
2022/06/05 00:15:57;;;;;;;8.30;6.13;;;;;;;15.41;100.00;93078.00;2084891;28;20090;-84
2022/06/05 00:17:00;;;;;;;5.97;5.45;;;;;;;15.32;100.00;93076.06;2090489;28;20074;-84
2022/06/05 00:18:02;;;;;;;6.95;6.25;;;;;;;15.27;100.00;93068.56;2090158;28;20032;-83
2022/06/05 00:19:04;;;;;;;6.43;5.85;;;;;;;15.29;100.00;93068.88;2090300;28;20057;-84
2022/06/05 00:20:07;;;;;;;6.25;5.75;;;;;;;15.31;100.00;93058.41;2090092;28;20550;-84
2022/06/05 00:21:11;;;;;;;7.00;5.70;;;;;;;15.30;100.00;93059.59;2098389;28;20501;-84
2022/06/05 00:22:14;;;;;;;6.43;5.68;;;;;;;15.26;100.00;93053.63;2098474;28;20474;-84
2022/06/05 00:23:23;;;;;;;6.88;5.93;;;;;;;15.19;100.00;93062.75;2098374;28;20107;-83
2022/06/05 00:24:24;;;;;;;6.68;5.97;;;;;;;15.13;100.00;93056.44;2092231;28;20028;-84
2022/06/05 00:25:39;;;;;;;6.22;5.63;;;;;;;15.15;100.00;93058.69;2098265;28;20016;-83
2022/06/05 00:26:51;;;;;;;7.68;5.88;;;;;;;15.21;100.00;93051.53;2099948;28;20035;-84
2022/06/05 00:28:10;;;;;;;6.75;5.63;;;;;;;15.23;100.00;93051.81;2106646;28;20064;-84
2022/06/05 00:29:34;;;;;;;5.97;5.40;;;;;;;15.23;100.00;93049.88;2094869;28;20025;-84
2022/06/05 00:30:44;;;;;;;6.30;5.65;;;;;;;15.21;100.00;93049.56;2095624;28;20381;-84
2022/06/05 00:32:22;;;;;;;6.88;5.78;;;;;;;15.39;100.00;93048.09;2100732;28;20127;-83
2022/06/05 00:33:36;;;;;;;6.80;5.88;;;;;;;15.47;100.00;93060.81;2095142;28;20062;-84
2022/06/05 00:34:37;;;;;;;5.90;5.40;;;;;;;15.55;100.00;93059.34;2093267;28;20025;-84
2022/06/05 00:35:58;;;;;;;7.40;5.82;;;;;;;15.59;100.00;93061.88;2097811;28;20484;-85
2022/06/05 00:37:14;;;;;;;6.03;5.10;;;;;;;15.76;100.00;93068.50;2100614;28;20028;-84
2022/06/05 00:38:24;;;;;;;6.47;5.20;;;;;;;15.65;100.00;93070.16;2099987;28;20051;-83
2022/06/05 00:39:44;;;;;;;6.95;5.32;;;;;;;15.68;100.00;93080.03;2099337;28;20028;-83
2022/06/05 00:41:02;;;;;;;8.75;5.30;;;;;;;15.72;100.00;93070.59;2100383;28;20089;-84
2022/06/05 00:42:06;;;;;;;6.57;4.90;;;;;;;15.65;100.00;93076.28;2092015;28;20497;-84
2022/06/05 00:43:13;;;;;;;7.85;5.07;;;;;;;15.49;100.00;93071.88;2082438;28;20052;-84
2022/06/05 00:44:20;;;;;;;5.45;4.88;;;;;;;15.43;100.00;93072.94;2091271;28;20055;-84
2022/06/05 00:45:22;;;;;;;5.90;4.90;;;;;;;15.47;100.00;93076.25;2098764;28;20016;-83
2022/06/05 00:46:24;;;;;;;6.38;5.30;;;;;;;15.43;100.00;93081.78;2097972;28;20032;-84
2022/06/05 00:47:31;;;;;;;5.47;5.03;;;;;;;15.38;100.00;93076.22;2097828;28;20101;-84
2022/06/05 00:48:33;;;;;;;6.32;5.07;;;;;;;15.36;100.00;93069.34;2091371;28;20446;-84
2022/06/05 00:49:47;;;;;;;6.97;5.65;;;;;;;15.38;100.00;93063.50;2097928;28;20071;-84
2022/06/05 00:50:49;;;;;;;8.02;5.45;;;;;;;15.37;100.00;93070.09;2091195;28;20036;-85
2022/06/05 00:51:50;;;;;;;6.03;5.43;;;;;;;15.38;100.00;93068.16;2089762;28;20743;-83
2022/06/05 00:52:55;;;;;;;7.25;5.47;;;;;;;15.39;100.00;93069.66;2097265;28;20025;-84
2022/06/05 00:53:57;;;;;;;5.93;5.00;;;;;;;15.43;100.00;93070.25;2097181;28;20052;-83
2022/06/05 00:54:59;;;;;;;6.00;5.13;;;;;;;15.40;100.00;93071.13;2098036;28;20548;-83
2022/06/05 00:56:01;;;;;;;5.82;5.30;;;;;;;15.42;100.00;93074.16;2097691;28;20028;-83
2022/06/05 00:57:08;;;;;;;7.55;5.47;;;;;;;15.37;100.00;93070.09;2081887;28;20018;-83
2022/06/05 00:58:10;;;;;;;5.57;5.07;;;;;;;15.41;100.00;93068.00;2091195;28;20039;-83
2022/06/05 00:59:12;;;;;;;7.35;5.25;;;;;;;15.51;100.00;93064.13;2097686;28;20028;-83
2022/06/05 01:00:20;;;;;;;6.38;5.38;;;;;;;15.53;100.00;93066.34;2097650;28;20438;-84
2022/06/05 01:01:23;;;;;;;5.95;5.25;;;;;;;15.57;100.00;93059.63;2090509;28;20029;-82
2022/06/05 01:02:28;;;;;;;6.30;5.20;;;;;;;15.53;100.00;93058.28;2089896;28;20040;-84
2022/06/05 01:03:32;;;;;;;5.93;5.00;;;;;;;15.50;100.00;93051.13;2082307;28;20116;-84
2022/06/05 01:04:34;;;;;;;5.70;5.20;;;;;;;15.44;100.00;93050.94;2082115;28;20025;-84
2022/06/05 01:05:36;;;;;;;5.90;5.22;;;;;;;15.42;100.00;93039.88;2098070;28;20681;-83
2022/06/05 01:06:38;;;;;;;6.22;5.63;;;;;;;15.43;100.00;93029.84;2097671;28;20020;-84
2022/06/05 01:07:40;;;;;;;5.93;5.30;;;;;;;15.37;100.00;93027.00;2097888;28;20566;-84
2022/06/05 01:08:41;;;;;;;6.38;5.28;;;;;;;15.35;100.00;93024.00;2089606;28;20024;-85
2022/06/05 01:09:45;;;;;;;6.65;5.78;;;;;;;15.33;100.00;93029.84;2089522;28;20384;-85
2022/06/05 01:11:03;;;;;;;6.38;5.35;;;;;;;15.36;100.00;93026.25;2097725;28;20024;-84
2022/06/05 01:12:33;;;;;;;7.00;5.30;;;;;;;15.40;100.00;93030.72;2091779;28;20043;-85
2022/06/05 01:13:40;;;;;;;8.60;5.32;;;;;;;15.55;100.00;93028.97;2105904;28;20056;-85
2022/06/05 01:15:12;;;;;;;8.90;5.22;;;;;;;15.58;100.00;93023.44;2097596;28;20079;-85
2022/06/05 01:16:24;;;;;;;8.77;4.65;;;;;;;15.69;100.00;93023.00;2101843;28;20103;-85
2022/06/05 01:17:38;;;;;;;5.00;4.50;;;;;;;15.52;100.00;93019.06;2090937;28;20025;-85
2022/06/05 01:18:49;;;;;;;9.32;5.18;;;;;;;15.40;100.00;93028.03;2092930;28;20020;-85
2022/06/05 01:20:07;;;;;;;8.98;5.65;;;;;;;15.35;100.00;93018.63;2091680;28;20029;-85
2022/06/05 01:21:08;;;;;;;10.18;5.13;;;;;;;15.29;100.00;93031.94;2093915;28;20096;-85
2022/06/05 01:22:22;;;;;;;5.10;4.65;;;;;;;15.28;100.00;93024.31;2102734;28;20544;-85
2022/06/05 01:24:03;;;;;;;5.40;4.90;;;;;;;15.33;100.00;93021.03;2102144;28;20021;-85
2022/06/05 01:25:44;;;;;;;7.68;5.75;;;;;;;15.38;100.00;93009.66;2100457;28;20503;-85
2022/06/05 01:26:53;;;;;;;6.15;5.20;;;;;;;15.41;100.00;92989.13;2104185;28;20035;-85
2022/06/05 01:27:58;;;;;;;7.03;5.30;;;;;;;15.40;100.00;92983.00;2098116;28;20425;-84
2022/06/05 01:29:07;;;;;;;7.88;5.50;;;;;;;15.43;100.00;92979.41;2096522;28;20439;-85
2022/06/05 01:30:21;;;;;;;7.63;5.20;;;;;;;15.39;100.00;92973.44;2091382;28;20489;-85
2022/06/05 01:31:36;;;;;;;7.07;5.28;;;;;;;15.40;100.00;92972.22;2092956;28;20040;-85
2022/06/05 01:33:08;;;;;;;6.82;5.40;;;;;;;15.40;100.00;92963.41;2093142;28;20021;-85
2022/06/05 01:34:37;;;;;;;7.20;5.80;;;;;;;15.54;100.00;92955.47;2098166;28;20131;-85
2022/06/05 01:35:57;;;;;;;6.45;5.68;;;;;;;15.81;100.00;92953.97;2101773;28;20023;-85
2022/06/05 01:37:10;;;;;;;9.23;5.50;;;;;;;15.79;100.00;92943.59;2093424;28;20028;-84
2022/06/05 01:38:21;;;;;;;8.98;5.25;;;;;;;15.75;100.00;92945.72;2090668;28;20059;-84
2022/06/05 01:39:35;;;;;;;6.50;5.30;;;;;;;15.66;100.00;92948.44;2095906;28;20024;-85
2022/06/05 01:40:47;;;;;;;6.10;5.50;;;;;;;15.57;100.00;92949.16;2098224;28;20580;-85
2022/06/05 01:41:54;;;;;;;8.00;5.63;;;;;;;15.55;100.00;92943.50;2098858;28;20119;-85
2022/06/05 01:43:02;;;;;;;7.20;5.38;;;;;;;15.65;100.00;92940.81;2098252;28;20032;-85
2022/06/05 01:44:09;;;;;;;7.00;5.95;;;;;;;15.69;100.00;92936.00;2091191;28;20016;-85
2022/06/05 01:45:19;;;;;;;6.82;5.30;;;;;;;15.61;100.00;92925.50;2101058;28;20030;-84
2022/06/05 01:46:33;;;;;;;;;;;;;;;15.52;100.00;92925.53;2091006;28;20017;-85
2022/06/05 01:47:39;;;;;;;6.93;5.15;;;;;;;15.50;100.00;92925.25;2097426;28;19958;-85
2022/06/05 01:48:49;;;;;;;6.40;5.22;;;;;;;15.44;100.00;92923.59;2090551;28;20130;-85
2022/06/05 01:49:57;;;;;;;7.90;5.68;;;;;;;15.39;100.00;92918.81;2090427;28;20110;-85
2022/06/05 01:51:03;;;;;;;5.57;5.10;;;;;;;15.34;100.00;92910.13;2082592;28;20431;-85
2022/06/05 01:52:14;;;;;;;5.65;5.00;;;;;;;15.29;100.00;92910.75;2090790;28;20098;-84
2022/06/05 01:53:22;;;;;;;5.78;5.28;;;;;;;15.30;100.00;92914.94;2090603;28;20502;-84
2022/06/05 01:54:30;;;;;;;6.85;5.38;;;;;;;15.20;100.00;92910.75;2090947;28;20029;-85
2022/06/05 01:55:41;;;;;;;7.57;5.63;;;;;;;15.19;100.00;92905.81;2098308;28;20032;-85
2022/06/05 01:56:50;;;;;;;5.82;5.18;;;;;;;15.21;100.00;92912.25;2090749;28;20099;-85
2022/06/05 01:57:55;;;;;;;6.90;5.40;;;;;;;15.23;100.00;92903.72;2082908;28;20029;-85
2022/06/05 01:59:19;;;;;;;7.55;5.32;;;;;;;15.19;100.00;92906.56;2090215;28;20025;-85
2022/06/05 02:00:22;;;;;;;7.50;5.47;;;;;;;15.21;100.00;92904.16;2100588;28;20031;-85
2022/06/05 02:01:33;;;;;;;9.98;5.82;;;;;;;15.17;100.00;92887.41;2097712;28;20048;-85
2022/06/05 02:02:44;;;;;;;5.80;5.00;;;;;;;15.14;100.00;92893.69;2097337;28;20020;-85
2022/06/05 02:03:54;;;;;;;6.05;5.05;;;;;;;15.07;100.00;92892.06;2083772;28;20029;-85
2022/06/05 02:05:05;;;;;;;6.38;5.47;;;;;;;15.02;100.00;92900.00;2082982;28;20029;-85
2022/06/05 02:06:12;;;;;;;7.05;5.30;;;;;;;15.06;100.00;92893.28;2098810;28;20029;-84
2022/06/05 02:07:26;;;;;;;6.25;5.68;;;;;;;15.05;100.00;92894.44;2089997;28;20021;-84
2022/06/05 02:08:47;;;;;;;6.82;5.50;;;;;;;14.99;100.00;92890.13;2084511;28;20033;-85
2022/06/05 02:09:59;;;;;;;5.97;5.45;;;;;;;14.99;100.00;92890.13;2100157;28;20035;-84
2022/06/05 02:11:15;;;;;;;7.00;5.30;;;;;;;15.05;100.00;92886.38;2090411;28;20032;-85
2022/06/05 02:13:37;;;;;;;5.88;5.30;;;;;;;15.04;100.00;92892.94;2148036;27;20113;-86
2022/06/05 02:14:40;;;;;;;5.60;5.10;;;;;;;14.98;100.00;92897.44;2129997;27;20479;-85
2022/06/05 02:15:42;;;;;;;5.78;5.20;;;;;;;14.90;100.00;92885.50;2113306;28;20047;-85
2022/06/05 02:16:43;;;;;;;6.22;5.47;;;;;;;14.92;100.00;92888.47;2113230;28;20028;-86
2022/06/05 02:17:44;;;;;;;6.22;5.25;;;;;;;14.90;100.00;92884.75;2104725;28;20036;-85
2022/06/05 02:18:46;;;;;;;7.53;5.70;;;;;;;14.91;100.00;92878.91;2104604;28;20437;-85
2022/06/05 02:19:48;;;;;;;6.53;5.40;;;;;;;15.13;100.00;92880.69;2113221;27;20044;-86
2022/06/05 02:20:51;;;;;;;6.07;5.13;;;;;;;15.01;100.00;92866.97;2112822;28;20026;-85
2022/06/05 02:22:02;;;;;;;7.55;5.63;;;;;;;14.96;100.00;92867.53;2116667;27;20426;-85
2022/06/05 02:23:06;;;;;;;5.75;5.15;;;;;;;14.93;100.00;92865.75;2122854;27;20423;-85
2022/06/05 02:24:11;;;;;;;6.50;5.43;;;;;;;15.00;100.00;92875.47;2113864;27;20024;-85
2022/06/05 02:25:16;;;;;;;6.40;5.85;;;;;;;14.98;100.00;92884.00;2114099;27;20500;-86
2022/06/05 02:26:18;;;;;;;6.85;5.38;;;;;;;15.00;100.00;92878.16;2114248;27;20044;-85
2022/06/05 02:27:24;;;;;;;5.78;5.10;;;;;;;14.91;100.00;92878.91;2121503;27;20027;-86
2022/06/05 02:28:47;;;;;;;6.15;5.65;;;;;;;14.92;100.00;92871.56;2111066;28;20028;-85
2022/06/05 02:29:48;;;;;;;7.22;5.88;;;;;;;14.91;100.00;92862.75;2107537;28;20019;-85
2022/06/05 02:31:21;;;;;;;5.88;5.03;;;;;;;14.95;100.00;92855.28;2104404;28;20032;-86
2022/06/05 02:33:01;;;;;;;8.30;5.70;;;;;;;14.93;100.00;92863.06;2122038;27;20027;-86
2022/06/05 02:34:22;;;;;;;6.43;5.75;;;;;;;14.88;100.00;92874.41;2093416;28;20052;-85
2022/06/05 02:35:29;;;;;;;6.75;5.63;;;;;;;14.95;100.00;92882.19;2106978;28;20020;-85
2022/06/05 02:36:38;;;;;;;8.55;5.55;;;;;;;15.09;100.00;92886.97;2105050;28;20468;-86
2022/06/05 02:37:58;;;;;;;8.50;5.82;;;;;;;15.21;100.00;92898.03;2098477;28;20025;-86
2022/06/05 02:39:04;;;;;;;6.93;5.53;;;;;;;15.21;100.00;92901.47;2107114;28;20484;-86
2022/06/05 02:40:22;;;;;;;6.45;5.80;;;;;;;15.21;100.00;92904.16;2097476;28;20028;-86
2022/06/05 02:42:07;;;;;;;6.30;5.55;;;;;;;15.14;100.00;92899.06;2112585;28;20131;-86
2022/06/05 02:44:27;;;;;;;7.28;6.35;;;;;;;15.05;100.00;92891.75;2114800;28;20129;-86
2022/06/05 02:45:09;;;;;;;7.60;5.88;;;;;;;15.08;100.00;92880.09;2112293;28;20426;-86
2022/06/05 02:46:44;;;;;;;9.35;6.38;;;;;;;15.04;100.00;92874.13;2096353;28;20024;-86
2022/06/05 02:47:58;;;;;;;7.38;6.65;;;;;;;15.07;100.00;92870.53;2093439;28;20040;-85
2022/06/05 02:49:26;;;;;;;7.65;6.30;;;;;;;15.10;100.00;92868.88;2091257;28;20021;-85
2022/06/05 02:50:30;;;;;;;7.30;6.28;;;;;;;15.08;100.00;92873.97;2102226;28;20109;-86
2022/06/05 02:51:36;;;;;;;8.07;6.63;;;;;;;15.13;100.00;92875.31;2088433;28;20048;-86
2022/06/05 02:52:39;;;;;;;10.63;6.80;;;;;;;15.17;100.00;92881.28;2089220;28;20026;-86
2022/06/05 02:53:55;;;;;;;8.48;7.05;;;;;;;15.15;100.00;92887.13;2088500;28;20028;-85
2022/06/05 02:55:03;;;;;;;10.00;7.28;;;;;;;15.28;100.00;92901.19;2104294;28;20024;-85
2022/06/05 02:56:08;;;;;;;7.93;7.13;;;;;;;15.71;100.00;92903.97;2089861;28;20033;-86
2022/06/05 02:57:09;;;;;;;6.85;6.15;;;;;;;15.66;100.00;92904.56;2088709;28;20506;-85
2022/06/05 02:58:13;;;;;;;8.65;7.32;;;;;;;15.43;100.00;92909.38;2099785;28;20477;-86
2022/06/05 02:59:15;;;;;;;8.38;7.50;;;;;;;15.53;100.00;92912.81;2104606;28;20028;-85
2022/06/05 03:00:21;;;;;;;8.50;7.63;;;;;;;15.53;100.00;92923.56;2096348;28;20025;-86
2022/06/05 03:04:07;;;;;;;;;;;;;;;15.44;100.00;92927.03;2115847;28;20081;-85
2022/06/05 03:05:08;;;;;;;10.23;8.75;;;;;;;15.45;100.00;92928.53;2112605;28;20273;-85
2022/06/05 03:06:09;;;;;;;9.60;8.70;;;;;;;15.48;100.00;92924.19;2104110;28;20059;-85
2022/06/05 03:07:11;;;;;;;11.23;8.85;;;;;;;15.50;100.00;92927.19;2095956;28;20027;-86
2022/06/05 03:08:14;;;;;;;9.35;8.07;;;;;;;15.44;100.00;92921.66;2095824;28;20029;-86
2022/06/05 03:09:16;;;;;;;11.07;9.32;;;;;;;15.49;100.00;92921.03;2096714;28;20024;-85
2022/06/05 03:10:37;;;;;;;10.30;9.27;;;;;;;15.42;100.00;92920.63;2108326;28;20032;-86
2022/06/05 03:11:39;;;;;;;11.38;8.68;;;;;;;15.38;100.00;92923.47;2104070;28;20072;-86
2022/06/05 03:12:40;;;;;;;10.18;9.18;;;;;;;15.33;100.00;92927.50;2103968;28;20029;-86
2022/06/05 03:13:41;;;;;;;9.15;8.35;;;;;;;15.40;100.00;92931.06;2104370;28;20043;-85
2022/06/05 03:14:42;;;;;;;10.10;9.07;;;;;;;15.55;100.00;92935.41;2095819;28;20027;-86
2022/06/05 03:15:43;;;;;;;9.68;8.57;;;;;;;15.43;100.00;92930.94;2095822;28;20024;-85
2022/06/05 03:16:45;;;;;;;10.55;9.50;;;;;;;15.33;100.00;92937.53;2095867;28;20035;-86
2022/06/05 03:17:47;;;;;;;10.82;9.48;;;;;;;15.33;100.00;92943.66;2095869;28;20020;-85
2022/06/05 03:18:48;;;;;;;10.75;9.52;;;;;;;15.33;100.00;92946.34;2095933;28;20090;-85
2022/06/05 03:19:49;;;;;;;13.07;8.63;;;;;;;15.39;100.00;92945.75;2087529;28;20478;-85
2022/06/05 03:20:59;;;;;;;10.65;9.60;;;;;;;15.38;100.00;92947.69;2095673;28;20033;-85
2022/06/05 03:22:00;;;;;;;10.00;9.00;;;;;;;15.32;100.00;92952.16;2110756;28;20365;-85
2022/06/05 03:23:01;;;;;;;10.60;9.60;;;;;;;15.30;100.00;92962.66;2095809;28;20029;-86
2022/06/05 03:24:05;;;;;;;9.68;8.50;;;;;;;15.30;100.00;92966.09;2104222;28;20040;-85
2022/06/05 03:25:08;;;;;;;10.10;9.10;;;;;;;15.28;100.00;92970.44;2100667;28;20024;-85
2022/06/05 03:26:11;;;;;;;10.40;9.40;;;;;;;15.45;100.00;92973.56;2090729;28;20041;-85
2022/06/05 03:27:14;;;;;;;10.30;9.25;;;;;;;15.48;100.00;92980.75;2107200;28;20024;-86
2022/06/05 03:28:15;;;;;;;10.85;9.70;;;;;;;15.49;100.00;92974.16;2098653;28;20020;-85
2022/06/05 03:29:18;;;;;;;10.15;9.10;;;;;;;15.45;100.00;92982.41;2098596;28;20024;-85
2022/06/05 03:30:22;;;;;;;11.05;9.80;;;;;;;15.47;100.00;92985.41;2106981;28;20091;-85
2022/06/05 03:31:25;;;;;;;11.02;9.63;;;;;;;15.53;100.00;92982.84;2106518;28;20413;-86
2022/06/05 03:32:26;;;;;;;10.45;9.50;;;;;;;15.52;100.00;92987.50;2090719;28;20025;-86
2022/06/05 03:33:28;;;;;;;10.52;9.63;;;;;;;15.63;100.00;92984.34;2090377;28;20493;-85
2022/06/05 03:34:30;;;;;;;12.40;9.60;;;;;;;15.81;100.00;92986.31;2090324;28;20493;-86
2022/06/05 03:35:31;;;;;;;10.88;9.15;;;;;;;15.86;100.00;92989.13;2090320;28;20021;-85
2022/06/05 03:36:32;;;;;;;11.05;9.95;;;;;;;15.70;100.00;92986.75;2098723;28;20032;-85
2022/06/05 03:37:33;;;;;;;11.45;9.85;;;;;;;15.73;100.00;92977.78;2106872;28;20126;-85
2022/06/05 03:38:35;;;;;;;12.48;9.68;;;;;;;15.68;100.00;92980.34;2090220;28;20033;-85
2022/06/05 03:39:36;;;;;;;10.63;9.52;;;;;;;15.59;100.00;92981.06;2090487;28;20116;-85
2022/06/05 03:40:45;;;;;;;10.73;9.63;;;;;;;15.55;100.00;92983.16;2090092;28;20017;-85
2022/06/05 03:41:47;;;;;;;11.93;9.73;;;;;;;15.54;100.00;92998.56;2100627;28;20062;-86
2022/06/05 03:42:49;;;;;;;14.18;10.00;;;;;;;15.45;100.00;92998.59;2106726;28;20079;-84
2022/06/05 03:43:51;;;;;;;11.30;10.30;;;;;;;15.46;100.00;92997.38;2098612;28;20123;-86
2022/06/05 03:44:52;;;;;;;10.48;9.57;;;;;;;15.73;100.00;93003.97;2090612;28;20047;-85
2022/06/05 03:46:05;;;;;;;10.50;9.50;;;;;;;15.71;100.00;93004.41;2090134;28;20056;-85
2022/06/05 03:47:07;;;;;;;10.57;9.57;;;;;;;15.75;100.00;93009.66;2101507;28;20472;-85
2022/06/05 03:48:08;;;;;;;12.25;10.40;;;;;;;15.76;100.00;93009.22;2106948;28;20052;-85
2022/06/05 03:49:13;;;;;;;11.32;10.30;;;;;;;16.09;100.00;93019.34;2098272;28;20393;-85
2022/06/05 03:50:16;;;;;;;11.35;10.25;;;;;;;15.83;100.00;93016.22;2098930;28;20024;-86
2022/06/05 03:51:21;;;;;;;11.52;9.25;;;;;;;15.95;100.00;93023.41;2098110;28;20358;-85
2022/06/05 03:52:22;;;;;;;11.20;10.10;;;;;;;16.00;100.00;93025.50;2090469;28;20079;-86
2022/06/05 03:53:23;;;;;;;12.27;9.23;;;;;;;15.96;100.00;93026.84;2081833;28;20032;-85
2022/06/05 03:54:24;;;;;;;12.15;9.50;;;;;;;16.00;100.00;93030.88;2098466;28;20024;-85
2022/06/05 03:55:27;;;;;;;10.77;9.60;;;;;;;15.89;100.00;93030.59;2098260;28;20512;-85
2022/06/05 03:56:29;;;;;;;10.63;9.60;;;;;;;15.80;100.00;93033.28;2090049;28;20120;-85
2022/06/05 03:57:30;;;;;;;14.15;9.48;;;;;;;15.98;100.00;93027.13;2090051;28;20021;-86
2022/06/05 03:58:31;;;;;;;18.90;10.70;;;;;;;15.84;100.00;93018.47;2088337;28;20048;-85
2022/06/05 03:59:36;;;;;;;15.93;10.48;;;;;;;15.82;100.00;93028.97;2098166;28;20489;-85
2022/06/05 04:00:37;;;;;;;14.05;9.93;;;;;;;15.79;100.00;93027.16;2098445;28;20111;-84
2022/06/05 04:01:38;;;;;;;11.68;10.48;;;;;;;15.73;100.00;93028.22;2089828;28;20032;-84
2022/06/05 04:02:39;;;;;;;15.63;10.93;;;;;;;15.84;100.00;93028.50;2089990;28;20025;-84
2022/06/05 04:03:41;;;;;;;14.10;11.05;;;;;;;15.61;100.00;93025.19;2098112;28;20025;-84
2022/06/05 04:04:42;;;;;;;13.80;11.68;;;;;;;15.62;100.00;93029.38;2098221;28;20107;-83
2022/06/05 04:05:44;;;;;;;14.20;10.82;;;;;;;15.62;100.00;93020.56;2089729;28;20100;-84
2022/06/05 04:06:45;;;;;;;18.30;11.80;;;;;;;15.59;100.00;93027.59;2098605;28;20115;-84
2022/06/05 04:07:46;;;;;;;12.18;11.00;;;;;;;15.72;100.00;93030.19;2098127;28;20087;-84
2022/06/05 04:08:48;;;;;;;11.85;10.65;;;;;;;15.65;100.00;93035.84;2106282;28;20024;-84
2022/06/05 04:09:49;;;;;;;12.98;10.35;;;;;;;15.72;100.00;93040.22;2081898;28;20061;-84
2022/06/05 04:10:50;;;;;;;11.65;10.45;;;;;;;15.79;100.00;93046.03;2081380;28;20418;-84
2022/06/05 04:12:02;;;;;;;12.15;10.82;;;;;;;15.69;100.00;93041.84;2083615;28;20041;-84
2022/06/05 04:13:04;;;;;;;12.05;10.93;;;;;;;15.57;100.00;93045.41;2092453;28;20047;-84
2022/06/05 04:14:07;;;;;;;14.75;11.93;;;;;;;15.47;100.00;93041.97;2089870;28;20031;-84
2022/06/05 04:15:09;;;;;;;14.13;11.32;;;;;;;15.39;100.00;93056.91;2097819;28;20092;-84
2022/06/05 04:16:19;;;;;;;16.77;12.13;;;;;;;15.32;100.00;93060.66;2081529;28;20029;-84
2022/06/05 04:17:20;;;;;;;;;;;;;;;15.52;100.00;93057.53;2095050;28;20054;-83
2022/06/05 04:18:21;;;;;;;13.05;11.82;;;;;;;15.54;100.00;93065.16;2098157;28;19908;-84
2022/06/05 04:19:22;;;;;;;12.73;11.27;;;;;;;15.58;100.00;93076.53;2105979;28;20150;-84
2022/06/05 04:20:23;;;;;;;13.20;11.90;;;;;;;15.69;100.00;93093.06;2097348;28;20409;-84
2022/06/05 04:21:27;;;;;;;13.85;12.45;;;;;;;15.58;100.00;93108.88;2102483;28;20028;-84
2022/06/05 04:22:28;;;;;;;18.25;11.77;;;;;;;15.48;100.00;93115.44;2097555;28;20020;-84
2022/06/05 04:23:28;;;;;;;29.98;12.93;;;;;;;15.49;100.00;93131.16;2087152;28;20595;-84
2022/06/05 04:24:30;;;;;;;23.85;12.65;;;;;;;15.46;100.00;93139.41;2089270;28;20550;-84
2022/06/05 04:25:31;;;;;;;26.40;12.98;;;;;;;15.40;100.00;93141.91;2106269;28;20499;-85
2022/06/05 04:26:34;;;;;;;23.15;12.25;;;;;;;15.41;100.00;93150.75;2106394;28;20119;-84
2022/06/05 04:27:37;;;;;;;24.75;13.25;;;;;;;15.47;100.00;93162.44;2105457;28;20062;-84
2022/06/05 04:28:38;;;;;;;20.20;11.88;;;;;;;15.55;100.00;93172.50;2098203;28;20028;-84
2022/06/05 04:29:40;;;;;;;20.85;11.90;;;;;;;15.51;100.00;93171.88;2097957;28;20017;-84
2022/06/05 04:30:41;;;;;;;21.45;12.63;;;;;;;15.44;100.00;93166.03;2098088;28;20029;-84
2022/06/05 04:31:45;;;;;;;37.78;13.27;;;;;;;15.23;100.00;93124.50;2097516;28;20600;-84
2022/06/05 04:32:46;;;;;;;53.75;13.98;;;;;;;15.13;100.00;93067.19;2098407;28;20024;-84
2022/06/05 04:33:49;;;;;;;23.73;12.40;;;;;;;15.00;100.00;93026.19;2098094;28;20463;-84
2022/06/05 04:34:50;;;;;;;30.77;12.68;;;;;;;15.03;100.00;93006.47;2098259;28;20029;-84
2022/06/05 04:35:51;;;;;;;17.60;11.00;;;;;;;15.00;100.00;92969.66;2097669;28;20028;-84
2022/06/05 04:36:52;;;;;;;15.13;11.43;;;;;;;15.01;100.00;92941.56;2088948;28;20021;-84
2022/06/05 04:37:53;;;;;;;14.68;12.40;;;;;;;15.05;100.00;92918.66;2089755;28;21012;-84
2022/06/05 04:38:55;;;;;;;15.98;11.40;;;;;;;15.19;100.00;92895.03;2089748;28;20478;-83
2022/06/05 04:39:56;;;;;;;17.20;11.70;;;;;;;15.25;100.00;92887.88;2106388;28;20028;-84
2022/06/05 04:40:58;;;;;;;20.73;12.45;;;;;;;15.23;100.00;92895.63;2095766;28;20029;-84
2022/06/05 04:41:59;;;;;;;18.48;12.93;;;;;;;15.20;100.00;92889.22;2081630;28;20103;-84
2022/06/05 04:43:06;;;;;;;16.25;12.13;;;;;;;15.25;100.00;92894.00;2081636;28;20025;-84
2022/06/05 04:44:12;;;;;;;17.70;13.20;;;;;;;15.20;100.00;92904.63;2083131;28;20030;-84
2022/06/05 04:45:13;;;;;;;15.60;12.32;;;;;;;15.10;100.00;92901.94;2082687;28;20053;-84
2022/06/05 04:46:17;;;;;;;14.63;11.73;;;;;;;15.21;100.00;92903.44;2089478;28;20433;-84
2022/06/05 04:47:18;;;;;;;12.88;11.50;;;;;;;15.19;100.00;92922.72;2102560;28;20085;-84
2022/06/05 04:48:19;;;;;;;15.32;10.23;;;;;;;15.26;100.00;92927.06;2097831;28;20028;-85
2022/06/05 04:49:20;;;;;;;12.23;9.82;;;;;;;15.16;100.00;92936.34;2081329;28;20071;-84
2022/06/05 04:50:22;;;;;;;19.40;9.45;;;;;;;15.39;100.00;92945.75;2089569;28;20425;-84
2022/06/05 04:51:23;;;;;;;11.95;8.80;;;;;;;15.31;100.00;92935.28;2089493;28;20032;-84
2022/06/05 04:52:24;;;;;;;12.07;8.25;;;;;;;15.13;100.00;92934.53;2081429;28;20441;-85
2022/06/05 04:53:25;;;;;;;12.38;8.88;;;;;;;15.10;100.00;92945.00;2089365;28;20036;-84
2022/06/05 04:54:27;;;;;;;11.35;8.73;;;;;;;15.19;100.00;92976.59;2097715;28;20039;-85
2022/06/05 04:55:28;;;;;;;12.40;9.82;;;;;;;15.34;100.00;92999.00;2089623;28;20123;-85
2022/06/05 04:56:29;;;;;;;10.98;9.88;;;;;;;15.22;100.00;92996.47;2089406;28;20028;-85
2022/06/05 04:57:30;;;;;;;10.75;9.55;;;;;;;15.15;100.00;92983.31;2091899;28;20119;-85
2022/06/05 04:58:31;;;;;;;11.27;10.18;;;;;;;15.09;100.00;92977.75;2097400;28;20035;-85
2022/06/05 04:59:32;;;;;;;9.50;8.30;;;;;;;15.21;100.00;92982.25;2089539;28;20537;-85
2022/06/05 05:00:33;;;;;;;11.35;8.82;;;;;;;15.09;100.00;92985.81;2081168;28;20033;-85
2022/06/05 05:01:37;;;;;;;8.50;7.60;;;;;;;15.17;100.00;93005.88;2088045;28;20021;-84
2022/06/05 05:02:38;;;;;;;8.77;7.97;;;;;;;15.22;100.00;93007.22;2089351;28;20028;-85
2022/06/05 05:03:40;;;;;;;10.00;8.82;;;;;;;15.36;100.00;93017.41;2089763;28;20024;-84
2022/06/05 05:04:41;;;;;;;11.75;8.90;;;;;;;15.50;100.00;93022.22;2098012;28;20120;-86
2022/06/05 05:05:42;;;;;;;9.45;7.82;;;;;;;15.55;100.00;93031.66;2105885;28;20115;-85
2022/06/05 05:06:44;;;;;;;9.50;8.60;;;;;;;15.48;100.00;93037.31;2097840;28;20059;-85
2022/06/05 05:07:45;;;;;;;11.52;8.35;;;;;;;15.38;100.00;93028.50;2089636;28;20039;-85
2022/06/05 05:08:46;;;;;;;12.18;9.07;;;;;;;15.23;100.00;93022.97;2093360;28;20043;-85
2022/06/05 05:09:47;;;;;;;8.38;7.57;;;;;;;15.41;100.00;93005.28;2089384;28;20037;-85
2022/06/05 05:10:48;;;;;;;9.45;8.00;;;;;;;15.36;100.00;93002.03;2090015;28;20076;-87
2022/06/05 05:11:49;;;;;;;11.80;7.70;;;;;;;15.30;100.00;92998.41;2097783;28;20020;-86
2022/06/05 05:12:52;;;;;;;7.28;6.60;;;;;;;15.45;100.00;92997.81;2105861;28;20043;-85
2022/06/05 05:13:54;;;;;;;9.98;6.82;;;;;;;15.31;100.00;93007.97;2097804;28;20025;-84
2022/06/05 05:14:55;;;;;;;6.78;6.25;;;;;;;15.41;100.00;93002.59;2089695;28;20036;-84
2022/06/05 05:15:56;;;;;;;6.70;6.07;;;;;;;15.43;100.00;92987.50;2097619;28;20465;-84